Terminal Aerodrome Forecast
Issued by NWS

Home | Current Version | Previous Version | Graphics & Text | Print | Product List | Glossary On
Versions: 1 2 3 4 5 6 7 8 9 10 11 12
744
FTUS43 KMPX 161128
TAFRWF
TAF
KRWF 161128Z 1612/1712 32012G20KT P6SM -SHSN BKN025 OVC050
     FM161700 31009KT P6SM SCT015 BKN050
     FM162200 28007KT P6SM BKN060
     FM170000 25007KT P6SM SCT100
     FM170500 21010KT P6SM SKC=

USA.gov is the U.S. government's official web portal to all federal, state and local government web resources and services.